sensor_id;sensor_type;location;lat;lon;timestamp;P1;durP1;ratioP1;P2;durP2;ratioP2
29568;SDS011;16501;51.462;14.346;2023-02-28T00:00:04;14.00;;;5.63;;
29568;SDS011;16501;51.462;14.346;2023-02-28T00:02:35;12.75;;;4.88;;
29568;SDS011;16501;51.462;14.346;2023-02-28T00:05:00;15.55;;;5.88;;
29568;SDS011;16501;51.462;14.346;2023-02-28T00:07:26;20.58;;;5.80;;
29568;SDS011;16501;51.462;14.346;2023-02-28T00:09:51;15.05;;;5.75;;
29568;SDS011;16501;51.462;14.346;2023-02-28T00:12:17;19.07;;;6.80;;
29568;SDS011;16501;51.462;14.346;2023-02-28T00:14:42;18.90;;;6.63;;
29568;SDS011;16501;51.462;14.346;2023-02-28T00:17:08;15.52;;;5.93;;
29568;SDS011;16501;51.462;14.346;2023-02-28T00:19:33;15.48;;;6.70;;
29568;SDS011;16501;51.462;14.346;2023-02-28T00:21:58;15.57;;;6.43;;
29568;SDS011;16501;51.462;14.346;2023-02-28T00:24:23;16.97;;;6.30;;
29568;SDS011;16501;51.462;14.346;2023-02-28T00:26:49;12.15;;;5.85;;
29568;SDS011;16501;51.462;14.346;2023-02-28T00:29:15;17.25;;;7.63;;
29568;SDS011;16501;51.462;14.346;2023-02-28T00:31:41;15.40;;;5.95;;
29568;SDS011;16501;51.462;14.346;2023-02-28T00:34:06;19.48;;;6.55;;
29568;SDS011;16501;51.462;14.346;2023-02-28T00:36:32;19.10;;;6.35;;
29568;SDS011;16501;51.462;14.346;2023-02-28T00:38:57;16.52;;;6.25;;
29568;SDS011;16501;51.462;14.346;2023-02-28T00:41:22;24.50;;;6.95;;
29568;SDS011;16501;51.462;14.346;2023-02-28T00:43:48;15.93;;;6.00;;
29568;SDS011;16501;51.462;14.346;2023-02-28T00:46:13;17.00;;;5.88;;
29568;SDS011;16501;51.462;14.346;2023-02-28T00:48:38;23.48;;;7.93;;
29568;SDS011;16501;51.462;14.346;2023-02-28T00:51:05;23.63;;;7.60;;
29568;SDS011;16501;51.462;14.346;2023-02-28T00:53:30;12.80;;;5.78;;
29568;SDS011;16501;51.462;14.346;2023-02-28T00:55:57;17.23;;;6.00;;
29568;SDS011;16501;51.462;14.346;2023-02-28T00:58:23;27.38;;;7.50;;
29568;SDS011;16501;51.462;14.346;2023-02-28T01:00:48;16.60;;;6.53;;
29568;SDS011;16501;51.462;14.346;2023-02-28T01:03:14;15.95;;;6.93;;
29568;SDS011;16501;51.462;14.346;2023-02-28T01:05:40;14.52;;;6.88;;
29568;SDS011;16501;51.462;14.346;2023-02-28T01:08:06;14.25;;;6.75;;
29568;SDS011;16501;51.462;14.346;2023-02-28T01:10:31;16.85;;;6.93;;
29568;SDS011;16501;51.462;14.346;2023-02-28T01:12:57;17.80;;;7.30;;
29568;SDS011;16501;51.462;14.346;2023-02-28T01:15:22;18.75;;;7.00;;
29568;SDS011;16501;51.462;14.346;2023-02-28T01:17:47;16.42;;;6.15;;
29568;SDS011;16501;51.462;14.346;2023-02-28T01:20:12;25.58;;;7.32;;
29568;SDS011;16501;51.462;14.346;2023-02-28T01:22:37;16.15;;;6.80;;
29568;SDS011;16501;51.462;14.346;2023-02-28T01:25:03;21.65;;;6.90;;
29568;SDS011;16501;51.462;14.346;2023-02-28T01:27:28;22.85;;;7.88;;
29568;SDS011;16501;51.462;14.346;2023-02-28T01:29:54;21.23;;;7.40;;
29568;SDS011;16501;51.462;14.346;2023-02-28T01:32:19;19.25;;;7.78;;
29568;SDS011;16501;51.462;14.346;2023-02-28T01:34:44;25.45;;;7.97;;
29568;SDS011;16501;51.462;14.346;2023-02-28T01:37:09;15.73;;;7.05;;
29568;SDS011;16501;51.462;14.346;2023-02-28T01:39:34;14.40;;;7.28;;
29568;SDS011;16501;51.462;14.346;2023-02-28T01:42:00;18.85;;;8.00;;
29568;SDS011;16501;51.462;14.346;2023-02-28T01:44:55;19.45;;;7.22;;
29568;SDS011;16501;51.462;14.346;2023-02-28T01:47:16;20.25;;;7.65;;
29568;SDS011;16501;51.462;14.346;2023-02-28T01:49:41;16.63;;;8.77;;
29568;SDS011;16501;51.462;14.346;2023-02-28T01:52:07;18.92;;;8.05;;
29568;SDS011;16501;51.462;14.346;2023-02-28T01:54:33;20.75;;;7.53;;
29568;SDS011;16501;51.462;14.346;2023-02-28T01:57:01;21.30;;;8.85;;
29568;SDS011;16501;51.462;14.346;2023-02-28T01:59:33;13.75;;;7.03;;
29568;SDS011;16501;51.462;14.346;2023-02-28T02:02:01;20.15;;;7.93;;
29568;SDS011;16501;51.462;14.346;2023-02-28T02:04:27;22.52;;;7.97;;
29568;SDS011;16501;51.462;14.346;2023-02-28T02:06:55;20.77;;;8.02;;
29568;SDS011;16501;51.462;14.346;2023-02-28T02:09:20;16.48;;;7.32;;
29568;SDS011;16501;51.462;14.346;2023-02-28T02:11:45;18.45;;;7.55;;
29568;SDS011;16501;51.462;14.346;2023-02-28T02:14:15;15.93;;;7.40;;
29568;SDS011;16501;51.462;14.346;2023-02-28T02:27:06;16.67;;;7.07;;
29568;SDS011;16501;51.462;14.346;2023-02-28T02:39:29;17.65;;;7.38;;
29568;SDS011;16501;51.462;14.346;2023-02-28T02:41:58;15.88;;;6.97;;
29568;SDS011;16501;51.462;14.346;2023-02-28T02:44:27;19.25;;;7.80;;
29568;SDS011;16501;51.462;14.346;2023-02-28T02:46:54;23.08;;;7.63;;
29568;SDS011;16501;51.462;14.346;2023-02-28T02:49:24;22.15;;;7.18;;
29568;SDS011;16501;51.462;14.346;2023-02-28T02:51:50;20.48;;;8.00;;
29568;SDS011;16501;51.462;14.346;2023-02-28T02:54:20;19.45;;;7.53;;
29568;SDS011;16501;51.462;14.346;2023-02-28T02:56:47;16.85;;;7.28;;
29568;SDS011;16501;51.462;14.346;2023-02-28T02:59:13;21.13;;;6.80;;
29568;SDS011;16501;51.462;14.346;2023-02-28T03:01:46;17.08;;;7.07;;
29568;SDS011;16501;51.462;14.346;2023-02-28T03:04:13;21.92;;;7.45;;
29568;SDS011;16501;51.462;14.346;2023-02-28T03:06:41;18.95;;;6.93;;
29568;SDS011;16501;51.462;14.346;2023-02-28T03:09:06;18.85;;;7.80;;
29568;SDS011;16501;51.462;14.346;2023-02-28T03:11:34;18.77;;;6.50;;
29568;SDS011;16501;51.462;14.346;2023-02-28T03:14:09;19.10;;;6.75;;
29568;SDS011;16501;51.462;14.346;2023-02-28T03:16:37;20.60;;;8.05;;
29568;SDS011;16501;51.462;14.346;2023-02-28T03:19:14;23.63;;;7.88;;
29568;SDS011;16501;51.462;14.346;2023-02-28T03:22:01;16.75;;;6.55;;
29568;SDS011;16501;51.462;14.346;2023-02-28T03:27:05;16.40;;;7.13;;
29568;SDS011;16501;51.462;14.346;2023-02-28T03:29:35;17.85;;;7.38;;
29568;SDS011;16501;51.462;14.346;2023-02-28T03:34:34;22.65;;;7.93;;
29568;SDS011;16501;51.462;14.346;2023-02-28T03:37:04;21.38;;;7.07;;
29568;SDS011;16501;51.462;14.346;2023-02-28T03:39:34;16.63;;;6.97;;
29568;SDS011;16501;51.462;14.346;2023-02-28T03:42:04;18.40;;;7.10;;
29568;SDS011;16501;51.462;14.346;2023-02-28T03:44:32;19.88;;;7.80;;
29568;SDS011;16501;51.462;14.346;2023-02-28T03:47:00;17.73;;;8.15;;
29568;SDS011;16501;51.462;14.346;2023-02-28T03:49:29;17.50;;;7.03;;
29568;SDS011;16501;51.462;14.346;2023-02-28T03:51:56;15.93;;;6.70;;
29568;SDS011;16501;51.462;14.346;2023-02-28T03:54:27;15.35;;;7.22;;
29568;SDS011;16501;51.462;14.346;2023-02-28T03:56:59;19.95;;;7.82;;
29568;SDS011;16501;51.462;14.346;2023-02-28T04:01:53;14.82;;;6.38;;
29568;SDS011;16501;51.462;14.346;2023-02-28T04:04:20;16.25;;;6.72;;
29568;SDS011;16501;51.462;14.346;2023-02-28T04:06:45;16.90;;;6.88;;
29568;SDS011;16501;51.462;14.346;2023-02-28T04:09:11;16.30;;;7.20;;
29568;SDS011;16501;51.462;14.346;2023-02-28T04:11:49;16.13;;;6.70;;
29568;SDS011;16501;51.462;14.346;2023-02-28T04:14:16;16.50;;;7.05;;
29568;SDS011;16501;51.462;14.346;2023-02-28T04:16:42;21.17;;;7.63;;
29568;SDS011;16501;51.462;14.346;2023-02-28T04:19:09;19.13;;;7.75;;
29568;SDS011;16501;51.462;14.346;2023-02-28T04:23:59;24.63;;;7.97;;
29568;SDS011;16501;51.462;14.346;2023-02-28T04:26:35;16.73;;;7.13;;
29568;SDS011;16501;51.462;14.346;2023-02-28T04:29:03;18.02;;;6.93;;
29568;SDS011;16501;51.462;14.346;2023-02-28T04:31:29;15.48;;;6.43;;
29568;SDS011;16501;51.462;14.346;2023-02-28T04:33:54;12.95;;;6.38;;
29568;SDS011;16501;51.462;14.346;2023-02-28T04:36:19;14.02;;;6.15;;
29568;SDS011;16501;51.462;14.346;2023-02-28T04:38:45;15.45;;;6.38;;
29568;SDS011;16501;51.462;14.346;2023-02-28T04:41:12;16.40;;;6.47;;
29568;SDS011;16501;51.462;14.346;2023-02-28T04:43:37;15.95;;;7.68;;
29568;SDS011;16501;51.462;14.346;2023-02-28T04:46:03;16.30;;;7.35;;
29568;SDS011;16501;51.462;14.346;2023-02-28T04:48:29;17.63;;;8.13;;
29568;SDS011;16501;51.462;14.346;2023-02-28T04:50:54;17.27;;;7.25;;
29568;SDS011;16501;51.462;14.346;2023-02-28T04:53:19;13.93;;;7.15;;
29568;SDS011;16501;51.462;14.346;2023-02-28T04:55:45;18.58;;;7.03;;
29568;SDS011;16501;51.462;14.346;2023-02-28T04:58:12;16.02;;;6.38;;
29568;SDS011;16501;51.462;14.346;2023-02-28T05:00:37;16.63;;;6.32;;
29568;SDS011;16501;51.462;14.346;2023-02-28T05:03:02;15.38;;;6.65;;
29568;SDS011;16501;51.462;14.346;2023-02-28T05:05:28;19.40;;;6.95;;
29568;SDS011;16501;51.462;14.346;2023-02-28T05:07:54;12.13;;;5.55;;
29568;SDS011;16501;51.462;14.346;2023-02-28T05:10:22;21.95;;;7.43;;
29568;SDS011;16501;51.462;14.346;2023-02-28T05:12:48;17.75;;;5.90;;
29568;SDS011;16501;51.462;14.346;2023-02-28T05:15:15;16.30;;;5.90;;
29568;SDS011;16501;51.462;14.346;2023-02-28T05:17:41;15.98;;;7.13;;
29568;SDS011;16501;51.462;14.346;2023-02-28T05:20:06;13.07;;;6.28;;
29568;SDS011;16501;51.462;14.346;2023-02-28T05:22:32;12.68;;;6.00;;
29568;SDS011;16501;51.462;14.346;2023-02-28T05:24:57;15.30;;;6.30;;
29568;SDS011;16501;51.462;14.346;2023-02-28T05:27:22;11.95;;;5.45;;
29568;SDS011;16501;51.462;14.346;2023-02-28T05:29:47;15.63;;;5.38;;
29568;SDS011;16501;51.462;14.346;2023-02-28T05:32:13;15.65;;;5.68;;
29568;SDS011;16501;51.462;14.346;2023-02-28T05:34:38;12.18;;;5.60;;
29568;SDS011;16501;51.462;14.346;2023-02-28T05:37:04;22.50;;;7.20;;
29568;SDS011;16501;51.462;14.346;2023-02-28T05:39:29;16.48;;;5.40;;
29568;SDS011;16501;51.462;14.346;2023-02-28T05:41:56;19.75;;;6.22;;
29568;SDS011;16501;51.462;14.346;2023-02-28T05:44:21;13.57;;;4.93;;
29568;SDS011;16501;51.462;14.346;2023-02-28T05:46:46;19.85;;;6.60;;
29568;SDS011;16501;51.462;14.346;2023-02-28T05:49:12;18.13;;;6.25;;
29568;SDS011;16501;51.462;14.346;2023-02-28T05:51:39;10.70;;;5.70;;
29568;SDS011;16501;51.462;14.346;2023-02-28T05:54:04;13.90;;;6.80;;
29568;SDS011;16501;51.462;14.346;2023-02-28T05:56:30;18.30;;;7.18;;
29568;SDS011;16501;51.462;14.346;2023-02-28T05:58:55;14.18;;;6.07;;
29568;SDS011;16501;51.462;14.346;2023-02-28T06:01:37;14.68;;;5.75;;
29568;SDS011;16501;51.462;14.346;2023-02-28T06:04:03;16.20;;;5.63;;
29568;SDS011;16501;51.462;14.346;2023-02-28T06:06:29;10.30;;;5.63;;
29568;SDS011;16501;51.462;14.346;2023-02-28T06:08:54;11.55;;;5.72;;
29568;SDS011;16501;51.462;14.346;2023-02-28T06:11:20;14.77;;;5.35;;
29568;SDS011;16501;51.462;14.346;2023-02-28T06:13:45;10.82;;;5.30;;
29568;SDS011;16501;51.462;14.346;2023-02-28T06:16:11;12.75;;;5.95;;
29568;SDS011;16501;51.462;14.346;2023-02-28T06:18:36;9.43;;;5.35;;
29568;SDS011;16501;51.462;14.346;2023-02-28T06:21:01;13.85;;;5.70;;
29568;SDS011;16501;51.462;14.346;2023-02-28T06:23:26;17.77;;;5.68;;
29568;SDS011;16501;51.462;14.346;2023-02-28T06:25:52;12.32;;;5.65;;
29568;SDS011;16501;51.462;14.346;2023-02-28T06:28:18;16.00;;;5.82;;
29568;SDS011;16501;51.462;14.346;2023-02-28T06:30:43;18.60;;;6.30;;
29568;SDS011;16501;51.462;14.346;2023-02-28T06:33:08;17.17;;;5.60;;
29568;SDS011;16501;51.462;14.346;2023-02-28T06:35:33;11.55;;;5.50;;
29568;SDS011;16501;51.462;14.346;2023-02-28T06:37:58;11.43;;;5.28;;
29568;SDS011;16501;51.462;14.346;2023-02-28T06:40:24;17.90;;;6.43;;
29568;SDS011;16501;51.462;14.346;2023-02-28T06:42:49;14.00;;;7.40;;
29568;SDS011;16501;51.462;14.346;2023-02-28T06:45:14;15.23;;;6.03;;
29568;SDS011;16501;51.462;14.346;2023-02-28T06:47:41;14.70;;;5.93;;
29568;SDS011;16501;51.462;14.346;2023-02-28T06:50:07;11.65;;;5.15;;
29568;SDS011;16501;51.462;14.346;2023-02-28T06:52:33;12.45;;;5.15;;
29568;SDS011;16501;51.462;14.346;2023-02-28T06:55:01;13.25;;;5.15;;
29568;SDS011;16501;51.462;14.346;2023-02-28T06:57:29;13.43;;;4.88;;
29568;SDS011;16501;51.462;14.346;2023-02-28T06:59:56;12.68;;;4.93;;
29568;SDS011;16501;51.462;14.346;2023-02-28T07:02:21;13.50;;;6.07;;
29568;SDS011;16501;51.462;14.346;2023-02-28T07:04:48;12.90;;;4.55;;
29568;SDS011;16501;51.462;14.346;2023-02-28T07:07:13;16.73;;;6.88;;
29568;SDS011;16501;51.462;14.346;2023-02-28T07:09:39;16.98;;;6.43;;
29568;SDS011;16501;51.462;14.346;2023-02-28T07:12:04;10.15;;;5.43;;
29568;SDS011;16501;51.462;14.346;2023-02-28T07:14:29;8.43;;;4.32;;
29568;SDS011;16501;51.462;14.346;2023-02-28T07:16:54;9.15;;;4.47;;
29568;SDS011;16501;51.462;14.346;2023-02-28T07:19:20;12.02;;;4.18;;
29568;SDS011;16501;51.462;14.346;2023-02-28T07:21:45;10.18;;;4.47;;
29568;SDS011;16501;51.462;14.346;2023-02-28T07:24:10;14.02;;;4.72;;
29568;SDS011;16501;51.462;14.346;2023-02-28T07:26:35;9.77;;;4.63;;
29568;SDS011;16501;51.462;14.346;2023-02-28T07:29:00;15.05;;;5.28;;
29568;SDS011;16501;51.462;14.346;2023-02-28T07:31:27;15.10;;;5.50;;
29568;SDS011;16501;51.462;14.346;2023-02-28T07:33:52;9.60;;;4.63;;
29568;SDS011;16501;51.462;14.346;2023-02-28T07:36:18;13.18;;;5.43;;
29568;SDS011;16501;51.462;14.346;2023-02-28T07:38:44;10.43;;;5.00;;
29568;SDS011;16501;51.462;14.346;2023-02-28T07:41:11;10.82;;;4.20;;
29568;SDS011;16501;51.462;14.346;2023-02-28T07:43:36;13.02;;;4.88;;
29568;SDS011;16501;51.462;14.346;2023-02-28T07:46:03;16.63;;;5.43;;
29568;SDS011;16501;51.462;14.346;2023-02-28T07:48:29;9.95;;;4.97;;
29568;SDS011;16501;51.462;14.346;2023-02-28T07:50:55;16.40;;;5.50;;
29568;SDS011;16501;51.462;14.346;2023-02-28T07:53:20;10.93;;;5.57;;
29568;SDS011;16501;51.462;14.346;2023-02-28T07:55:45;10.80;;;5.47;;
29568;SDS011;16501;51.462;14.346;2023-02-28T07:58:11;11.63;;;5.45;;
29568;SDS011;16501;51.462;14.346;2023-02-28T08:00:36;17.00;;;5.30;;
29568;SDS011;16501;51.462;14.346;2023-02-28T08:03:01;12.25;;;5.43;;
29568;SDS011;16501;51.462;14.346;2023-02-28T08:05:26;13.23;;;6.18;;
29568;SDS011;16501;51.462;14.346;2023-02-28T08:07:51;15.52;;;5.75;;
29568;SDS011;16501;51.462;14.346;2023-02-28T08:10:18;13.38;;;5.63;;
29568;SDS011;16501;51.462;14.346;2023-02-28T08:12:43;14.65;;;6.75;;
29568;SDS011;16501;51.462;14.346;2023-02-28T08:15:08;16.02;;;6.53;;
29568;SDS011;16501;51.462;14.346;2023-02-28T08:17:35;19.90;;;6.82;;
29568;SDS011;16501;51.462;14.346;2023-02-28T08:20:00;16.08;;;7.05;;
29568;SDS011;16501;51.462;14.346;2023-02-28T08:22:26;18.55;;;7.85;;
29568;SDS011;16501;51.462;14.346;2023-02-28T08:24:51;17.50;;;7.63;;
29568;SDS011;16501;51.462;14.346;2023-02-28T08:27:16;19.23;;;7.22;;
29568;SDS011;16501;51.462;14.346;2023-02-28T08:29:42;20.65;;;7.68;;
29568;SDS011;16501;51.462;14.346;2023-02-28T08:32:07;16.77;;;7.78;;
29568;SDS011;16501;51.462;14.346;2023-02-28T08:34:32;14.60;;;7.05;;
29568;SDS011;16501;51.462;14.346;2023-02-28T08:36:57;22.02;;;7.80;;
29568;SDS011;16501;51.462;14.346;2023-02-28T08:39:23;17.90;;;7.80;;
29568;SDS011;16501;51.462;14.346;2023-02-28T08:41:48;15.48;;;8.38;;
29568;SDS011;16501;51.462;14.346;2023-02-28T08:44:13;18.17;;;8.05;;
29568;SDS011;16501;51.462;14.346;2023-02-28T08:46:39;16.33;;;7.90;;
29568;SDS011;16501;51.462;14.346;2023-02-28T08:49:04;17.20;;;7.85;;
29568;SDS011;16501;51.462;14.346;2023-02-28T08:51:29;18.67;;;8.32;;
29568;SDS011;16501;51.462;14.346;2023-02-28T08:53:55;18.48;;;7.30;;
29568;SDS011;16501;51.462;14.346;2023-02-28T08:56:21;18.85;;;8.15;;
29568;SDS011;16501;51.462;14.346;2023-02-28T08:58:47;15.38;;;7.55;;
29568;SDS011;16501;51.462;14.346;2023-02-28T09:01:16;14.20;;;7.32;;
29568;SDS011;16501;51.462;14.346;2023-02-28T09:03:41;18.38;;;7.53;;
29568;SDS011;16501;51.462;14.346;2023-02-28T09:06:07;19.02;;;8.15;;
29568;SDS011;16501;51.462;14.346;2023-02-28T09:08:34;23.23;;;8.10;;
29568;SDS011;16501;51.462;14.346;2023-02-28T09:10:59;18.35;;;8.10;;
29568;SDS011;16501;51.462;14.346;2023-02-28T09:13:25;18.40;;;7.50;;
29568;SDS011;16501;51.462;14.346;2023-02-28T09:15:50;15.52;;;6.95;;
29568;SDS011;16501;51.462;14.346;2023-02-28T09:18:16;12.70;;;6.30;;
29568;SDS011;16501;51.462;14.346;2023-02-28T09:20:41;16.73;;;7.15;;
29568;SDS011;16501;51.462;14.346;2023-02-28T09:23:07;15.98;;;6.25;;
29568;SDS011;16501;51.462;14.346;2023-02-28T09:25:32;11.93;;;5.70;;
29568;SDS011;16501;51.462;14.346;2023-02-28T09:27:58;17.13;;;6.03;;
29568;SDS011;16501;51.462;14.346;2023-02-28T09:30:23;17.98;;;6.80;;
29568;SDS011;16501;51.462;14.346;2023-02-28T09:32:49;13.18;;;7.03;;
29568;SDS011;16501;51.462;14.346;2023-02-28T09:35:17;13.57;;;6.75;;
29568;SDS011;16501;51.462;14.346;2023-02-28T09:37:42;21.95;;;6.28;;
29568;SDS011;16501;51.462;14.346;2023-02-28T09:40:08;15.93;;;4.85;;
29568;SDS011;16501;51.462;14.346;2023-02-28T09:42:34;9.50;;;5.28;;
29568;SDS011;16501;51.462;14.346;2023-02-28T09:45:05;14.40;;;6.28;;
29568;SDS011;16501;51.462;14.346;2023-02-28T09:47:39;9.60;;;5.53;;
29568;SDS011;16501;51.462;14.346;2023-02-28T09:52:46;12.18;;;5.57;;
29568;SDS011;16501;51.462;14.346;2023-02-28T09:55:19;10.73;;;5.35;;
29568;SDS011;16501;51.462;14.346;2023-02-28T09:57:44;11.43;;;5.65;;
29568;SDS011;16501;51.462;14.346;2023-02-28T10:00:13;11.68;;;5.22;;
29568;SDS011;16501;51.462;14.346;2023-02-28T10:02:46;8.55;;;4.55;;
29568;SDS011;16501;51.462;14.346;2023-02-28T10:05:15;8.73;;;4.90;;
29568;SDS011;16501;51.462;14.346;2023-02-28T10:08:01;9.40;;;4.90;;
29568;SDS011;16501;51.462;14.346;2023-02-28T10:10:40;8.40;;;4.53;;
29568;SDS011;16501;51.462;14.346;2023-02-28T10:15:39;11.43;;;5.30;;
29568;SDS011;16501;51.462;14.346;2023-02-28T10:18:06;10.70;;;4.90;;
29568;SDS011;16501;51.462;14.346;2023-02-28T10:20:37;10.55;;;4.95;;
29568;SDS011;16501;51.462;14.346;2023-02-28T10:23:05;11.27;;;4.95;;
29568;SDS011;16501;51.462;14.346;2023-02-28T10:25:35;7.95;;;3.90;;
29568;SDS011;16501;51.462;14.346;2023-02-28T10:28:05;9.88;;;4.68;;
29568;SDS011;16501;51.462;14.346;2023-02-28T10:30:33;9.63;;;4.15;;
29568;SDS011;16501;51.462;14.346;2023-02-28T10:32:58;11.02;;;3.90;;
29568;SDS011;16501;51.462;14.346;2023-02-28T10:35:24;18.30;;;5.40;;
29568;SDS011;16501;51.462;14.346;2023-02-28T10:37:59;8.98;;;4.10;;
29568;SDS011;16501;51.462;14.346;2023-02-28T10:40:30;8.55;;;4.57;;
29568;SDS011;16501;51.462;14.346;2023-02-28T10:45:30;8.23;;;3.88;;
29568;SDS011;16501;51.462;14.346;2023-02-28T10:47:58;11.10;;;3.97;;
29568;SDS011;16501;51.462;14.346;2023-02-28T10:50:50;9.50;;;4.68;;
29568;SDS011;16501;51.462;14.346;2023-02-28T10:55:35;8.65;;;4.45;;
29568;SDS011;16501;51.462;14.346;2023-02-28T10:58:00;9.25;;;4.38;;
29568;SDS011;16501;51.462;14.346;2023-02-28T11:00:25;10.73;;;4.63;;
29568;SDS011;16501;51.462;14.346;2023-02-28T11:02:56;9.43;;;3.55;;
29568;SDS011;16501;51.462;14.346;2023-02-28T11:05:26;8.50;;;4.30;;
29568;SDS011;16501;51.462;14.346;2023-02-28T11:07:55;9.25;;;4.50;;
29568;SDS011;16501;51.462;14.346;2023-02-28T11:10:24;7.35;;;4.28;;
29568;SDS011;16501;51.462;14.346;2023-02-28T11:12:50;10.90;;;4.32;;
29568;SDS011;16501;51.462;14.346;2023-02-28T11:15:34;8.38;;;3.92;;
29568;SDS011;16501;51.462;14.346;2023-02-28T11:18:24;11.82;;;4.72;;
29568;SDS011;16501;51.462;14.346;2023-02-28T11:20:48;10.32;;;4.03;;
29568;SDS011;16501;51.462;14.346;2023-02-28T11:23:13;9.38;;;3.97;;
29568;SDS011;16501;51.462;14.346;2023-02-28T11:25:40;7.70;;;3.47;;
29568;SDS011;16501;51.462;14.346;2023-02-28T11:28:29;7.78;;;4.30;;
29568;SDS011;16501;51.462;14.346;2023-02-28T11:33:42;8.70;;;3.80;;
29568;SDS011;16501;51.462;14.346;2023-02-28T11:36:14;9.48;;;3.53;;
29568;SDS011;16501;51.462;14.346;2023-02-28T11:38:42;5.80;;;3.28;;
29568;SDS011;16501;51.462;14.346;2023-02-28T11:43:38;16.57;;;4.03;;
29568;SDS011;16501;51.462;14.346;2023-02-28T11:51:33;10.32;;;4.70;;
29568;SDS011;16501;51.462;14.346;2023-02-28T11:54:12;7.65;;;4.90;;
29568;SDS011;16501;51.462;14.346;2023-02-28T11:56:39;8.18;;;4.55;;
29568;SDS011;16501;51.462;14.346;2023-02-28T12:17:38;8.63;;;3.78;;
29568;SDS011;16501;51.462;14.346;2023-02-28T12:27:49;9.20;;;4.37;;
29568;SDS011;16501;51.462;14.346;2023-02-28T12:32:43;6.53;;;3.95;;
29568;SDS011;16501;51.462;14.346;2023-02-28T12:37:42;8.60;;;3.90;;
29568;SDS011;16501;51.462;14.346;2023-02-28T12:40:11;6.00;;;3.88;;
29568;SDS011;16501;51.462;14.346;2023-02-28T12:42:39;7.55;;;4.30;;
29568;SDS011;16501;51.462;14.346;2023-02-28T12:45:39;8.82;;;4.20;;
29568;SDS011;16501;51.462;14.346;2023-02-28T12:47:59;10.77;;;3.97;;
29568;SDS011;16501;51.462;14.346;2023-02-28T12:50:25;7.18;;;4.53;;
29568;SDS011;16501;51.462;14.346;2023-02-28T13:00:36;6.78;;;3.97;;
29568;SDS011;16501;51.462;14.346;2023-02-28T13:05:49;7.20;;;4.27;;
29568;SDS011;16501;51.462;14.346;2023-02-28T13:08:36;7.55;;;4.20;;
29568;SDS011;16501;51.462;14.346;2023-02-28T13:11:07;7.35;;;4.15;;
29568;SDS011;16501;51.462;14.346;2023-02-28T13:13:47;10.27;;;4.22;;
29568;SDS011;16501;51.462;14.346;2023-02-28T13:16:13;9.02;;;4.60;;
29568;SDS011;16501;51.462;14.346;2023-02-28T13:18:45;11.50;;;4.57;;
29568;SDS011;16501;51.462;14.346;2023-02-28T13:26:01;8.23;;;4.15;;
29568;SDS011;16501;51.462;14.346;2023-02-28T13:31:12;8.85;;;4.35;;
29568;SDS011;16501;51.462;14.346;2023-02-28T13:46:28;12.18;;;4.63;;
29568;SDS011;16501;51.462;14.346;2023-02-28T13:48:53;11.60;;;4.65;;
29568;SDS011;16501;51.462;14.346;2023-02-28T13:51:37;7.68;;;4.20;;
29568;SDS011;16501;51.462;14.346;2023-02-28T13:57:07;8.00;;;4.10;;
29568;SDS011;16501;51.462;14.346;2023-02-28T14:02:13;8.18;;;3.55;;
29568;SDS011;16501;51.462;14.346;2023-02-28T14:04:47;10.77;;;4.20;;
29568;SDS011;16501;51.462;14.346;2023-02-28T14:09:41;11.48;;;4.10;;
29568;SDS011;16501;51.462;14.346;2023-02-28T14:14:54;10.85;;;4.57;;
29568;SDS011;16501;51.462;14.346;2023-02-28T14:17:19;9.60;;;4.30;;
29568;SDS011;16501;51.462;14.346;2023-02-28T14:19:45;6.53;;;3.67;;
29568;SDS011;16501;51.462;14.346;2023-02-28T14:24:57;10.23;;;4.75;;
29568;SDS011;16501;51.462;14.346;2023-02-28T14:27:28;8.93;;;3.88;;
29568;SDS011;16501;51.462;14.346;2023-02-28T14:37:52;10.40;;;4.05;;
29568;SDS011;16501;51.462;14.346;2023-02-28T14:40:25;12.57;;;4.32;;
29568;SDS011;16501;51.462;14.346;2023-02-28T14:42:58;8.07;;;4.15;;
29568;SDS011;16501;51.462;14.346;2023-02-28T14:45:24;10.73;;;4.18;;
29568;SDS011;16501;51.462;14.346;2023-02-28T14:47:53;9.00;;;3.78;;
29568;SDS011;16501;51.462;14.346;2023-02-28T14:50:19;10.15;;;3.78;;
29568;SDS011;16501;51.462;14.346;2023-02-28T14:52:44;7.47;;;3.95;;
29568;SDS011;16501;51.462;14.346;2023-02-28T14:55:12;9.63;;;4.28;;
29568;SDS011;16501;51.462;14.346;2023-02-28T14:57:40;8.70;;;4.13;;
29568;SDS011;16501;51.462;14.346;2023-02-28T15:00:14;7.85;;;4.25;;
29568;SDS011;16501;51.462;14.346;2023-02-28T15:02:39;9.75;;;4.05;;
29568;SDS011;16501;51.462;14.346;2023-02-28T15:07:46;7.90;;;4.50;;
29568;SDS011;16501;51.462;14.346;2023-02-28T15:12:39;9.05;;;4.30;;
29568;SDS011;16501;51.462;14.346;2023-02-28T15:15:05;9.27;;;4.30;;
29568;SDS011;16501;51.462;14.346;2023-02-28T15:17:31;7.60;;;4.20;;
29568;SDS011;16501;51.462;14.346;2023-02-28T15:19:58;10.40;;;4.40;;
29568;SDS011;16501;51.462;14.346;2023-02-28T15:22:26;11.05;;;5.22;;
29568;SDS011;16501;51.462;14.346;2023-02-28T15:24:54;8.05;;;4.72;;
29568;SDS011;16501;51.462;14.346;2023-02-28T15:27:20;9.27;;;5.07;;
29568;SDS011;16501;51.462;14.346;2023-02-28T15:29:48;9.00;;;4.88;;
29568;SDS011;16501;51.462;14.346;2023-02-28T15:32:37;8.75;;;5.30;;
29568;SDS011;16501;51.462;14.346;2023-02-28T15:37:52;9.75;;;5.10;;
29568;SDS011;16501;51.462;14.346;2023-02-28T15:45:53;9.88;;;4.97;;
29568;SDS011;16501;51.462;14.346;2023-02-28T15:48:21;10.80;;;5.18;;
29568;SDS011;16501;51.462;14.346;2023-02-28T15:51:09;12.10;;;5.40;;
29568;SDS011;16501;51.462;14.346;2023-02-28T15:53:37;8.70;;;4.72;;
29568;SDS011;16501;51.462;14.346;2023-02-28T15:56:45;9.40;;;4.30;;
29568;SDS011;16501;51.462;14.346;2023-02-28T16:02:01;9.02;;;4.88;;
29568;SDS011;16501;51.462;14.346;2023-02-28T16:04:27;10.15;;;5.18;;
29568;SDS011;16501;51.462;14.346;2023-02-28T16:09:24;7.68;;;4.68;;
29568;SDS011;16501;51.462;14.346;2023-02-28T16:11:52;10.00;;;4.83;;
29568;SDS011;16501;51.462;14.346;2023-02-28T16:14:19;10.38;;;4.72;;
29568;SDS011;16501;51.462;14.346;2023-02-28T16:16:45;8.73;;;5.07;;
29568;SDS011;16501;51.462;14.346;2023-02-28T16:19:11;24.63;;;6.80;;
29568;SDS011;16501;51.462;14.346;2023-02-28T16:21:37;9.65;;;5.35;;
29568;SDS011;16501;51.462;14.346;2023-02-28T16:24:02;11.15;;;5.25;;
29568;SDS011;16501;51.462;14.346;2023-02-28T16:26:27;14.65;;;4.85;;
29568;SDS011;16501;51.462;14.346;2023-02-28T16:28:53;9.80;;;5.05;;
29568;SDS011;16501;51.462;14.346;2023-02-28T16:31:18;9.60;;;4.90;;
29568;SDS011;16501;51.462;14.346;2023-02-28T16:33:44;9.70;;;4.85;;
29568;SDS011;16501;51.462;14.346;2023-02-28T16:36:20;10.73;;;5.07;;
29568;SDS011;16501;51.462;14.346;2023-02-28T16:38:45;13.45;;;5.30;;
29568;SDS011;16501;51.462;14.346;2023-02-28T16:41:15;10.75;;;4.95;;
29568;SDS011;16501;51.462;14.346;2023-02-28T16:43:43;16.55;;;4.90;;
29568;SDS011;16501;51.462;14.346;2023-02-28T16:46:09;11.90;;;5.30;;
29568;SDS011;16501;51.462;14.346;2023-02-28T16:48:35;11.93;;;4.75;;
29568;SDS011;16501;51.462;14.346;2023-02-28T16:51:01;9.55;;;4.93;;
29568;SDS011;16501;51.462;14.346;2023-02-28T16:53:29;8.82;;;4.75;;
29568;SDS011;16501;51.462;14.346;2023-02-28T16:55:54;25.13;;;5.43;;
29568;SDS011;16501;51.462;14.346;2023-02-28T16:58:19;15.13;;;5.75;;